sensor_id;sensor_type;location;lat;lon;timestamp;P1;durP1;ratioP1;P2;durP2;ratioP2
63621;SDS011;49770;47.544;19.074;2023-07-20T04:09:59;7.80;;;4.35;;
63621;SDS011;49770;47.544;19.074;2023-07-20T04:13:03;6.82;;;4.07;;
63621;SDS011;49770;47.544;19.074;2023-07-20T04:16:07;6.85;;;3.78;;
63621;SDS011;49770;47.544;19.074;2023-07-20T04:19:09;5.78;;;3.90;;
63621;SDS011;49770;47.544;19.074;2023-07-20T04:22:12;6.65;;;4.32;;
63621;SDS011;49770;47.544;19.074;2023-07-20T04:25:18;7.28;;;3.90;;
63621;SDS011;49770;47.544;19.074;2023-07-20T04:28:21;7.07;;;3.83;;
63621;SDS011;49770;47.544;19.074;2023-07-20T04:31:24;8.23;;;3.97;;
63621;SDS011;49770;47.544;19.074;2023-07-20T04:34:27;6.55;;;3.75;;
63621;SDS011;49770;47.544;19.074;2023-07-20T04:37:30;8.73;;;3.90;;
63621;SDS011;49770;47.544;19.074;2023-07-20T04:40:34;5.50;;;3.60;;
63621;SDS011;49770;47.544;19.074;2023-07-20T04:43:40;8.60;;;4.20;;
63621;SDS011;49770;47.544;19.074;2023-07-20T04:46:44;8.32;;;4.60;;
63621;SDS011;49770;47.544;19.074;2023-07-20T04:49:49;6.82;;;4.07;;
63621;SDS011;49770;47.544;19.074;2023-07-20T04:52:51;9.30;;;4.47;;
63621;SDS011;49770;47.544;19.074;2023-07-20T04:55:56;10.43;;;4.30;;
63621;SDS011;49770;47.544;19.074;2023-07-20T04:58:58;5.05;;;4.00;;
63621;SDS011;49770;47.544;19.074;2023-07-20T05:02:02;13.32;;;4.55;;
63621;SDS011;49770;47.544;19.074;2023-07-20T05:05:05;10.45;;;4.30;;
63621;SDS011;49770;47.544;19.074;2023-07-20T05:08:08;6.55;;;3.80;;
63621;SDS011;49770;47.544;19.074;2023-07-20T05:11:12;7.18;;;4.40;;
63621;SDS011;49770;47.544;19.074;2023-07-20T05:14:15;8.07;;;4.35;;
63621;SDS011;49770;47.544;19.074;2023-07-20T05:17:18;9.60;;;4.45;;
63621;SDS011;49770;47.544;19.074;2023-07-20T05:20:21;7.85;;;3.92;;
63621;SDS011;49770;47.544;19.074;2023-07-20T05:23:23;6.22;;;4.12;;
63621;SDS011;49770;47.544;19.074;2023-07-20T05:26:27;6.35;;;4.07;;
63621;SDS011;49770;47.544;19.074;2023-07-20T05:29:29;14.20;;;4.05;;
63621;SDS011;49770;47.544;19.074;2023-07-20T05:32:32;6.55;;;4.30;;
63621;SDS011;49770;47.544;19.074;2023-07-20T05:35:36;7.78;;;4.70;;
63621;SDS011;49770;47.544;19.074;2023-07-20T05:38:40;7.05;;;4.15;;
63621;SDS011;49770;47.544;19.074;2023-07-20T05:41:42;5.93;;;4.43;;
63621;SDS011;49770;47.544;19.074;2023-07-20T05:44:48;8.57;;;4.18;;
63621;SDS011;49770;47.544;19.074;2023-07-20T05:47:52;7.10;;;4.30;;
63621;SDS011;49770;47.544;19.074;2023-07-20T05:50:55;5.22;;;4.40;;
63621;SDS011;49770;47.544;19.074;2023-07-20T05:53:58;7.30;;;4.40;;
63621;SDS011;49770;47.544;19.074;2023-07-20T05:57:01;6.25;;;3.92;;
63621;SDS011;49770;47.544;19.074;2023-07-20T06:00:04;7.07;;;4.18;;
63621;SDS011;49770;47.544;19.074;2023-07-20T06:03:13;5.05;;;4.32;;
63621;SDS011;49770;47.544;19.074;2023-07-20T06:06:16;7.70;;;4.12;;
63621;SDS011;49770;47.544;19.074;2023-07-20T06:09:18;5.70;;;4.25;;
63621;SDS011;49770;47.544;19.074;2023-07-20T06:12:21;7.80;;;4.18;;
63621;SDS011;49770;47.544;19.074;2023-07-20T06:15:24;7.50;;;4.40;;
63621;SDS011;49770;47.544;19.074;2023-07-20T06:18:35;5.65;;;4.32;;
63621;SDS011;49770;47.544;19.074;2023-07-20T06:21:38;9.40;;;4.12;;
63621;SDS011;49770;47.544;19.074;2023-07-20T06:24:41;7.78;;;4.37;;
63621;SDS011;49770;47.544;19.074;2023-07-20T06:27:43;8.82;;;4.50;;
63621;SDS011;49770;47.544;19.074;2023-07-20T06:30:51;8.85;;;4.35;;
63621;SDS011;49770;47.544;19.074;2023-07-20T06:33:54;5.30;;;4.30;;
63621;SDS011;49770;47.544;19.074;2023-07-20T06:36:57;11.73;;;4.80;;
63621;SDS011;49770;47.544;19.074;2023-07-20T06:39:59;14.65;;;4.55;;
63621;SDS011;49770;47.544;19.074;2023-07-20T06:43:06;9.38;;;4.70;;
63621;SDS011;49770;47.544;19.074;2023-07-20T06:46:11;10.27;;;4.82;;
63621;SDS011;49770;47.544;19.074;2023-07-20T06:49:24;8.07;;;4.60;;
63621;SDS011;49770;47.544;19.074;2023-07-20T06:52:28;7.30;;;5.03;;
63621;SDS011;49770;47.544;19.074;2023-07-20T06:55:31;9.18;;;4.97;;
63621;SDS011;49770;47.544;19.074;2023-07-20T06:58:43;7.90;;;4.43;;
63621;SDS011;49770;47.544;19.074;2023-07-20T07:01:46;11.40;;;4.68;;
63621;SDS011;49770;47.544;19.074;2023-07-20T07:04:48;9.30;;;4.22;;
63621;SDS011;49770;47.544;19.074;2023-07-20T07:08:01;11.23;;;4.62;;
63621;SDS011;49770;47.544;19.074;2023-07-20T07:11:04;8.60;;;4.55;;
63621;SDS011;49770;47.544;19.074;2023-07-20T07:14:08;8.40;;;4.50;;
63621;SDS011;49770;47.544;19.074;2023-07-20T07:17:10;5.68;;;3.92;;
63621;SDS011;49770;47.544;19.074;2023-07-20T07:20:13;9.57;;;4.80;;
63621;SDS011;49770;47.544;19.074;2023-07-20T07:23:22;10.30;;;4.97;;
63621;SDS011;49770;47.544;19.074;2023-07-20T07:26:25;9.10;;;4.85;;
63621;SDS011;49770;47.544;19.074;2023-07-20T07:29:28;6.87;;;4.10;;
63621;SDS011;49770;47.544;19.074;2023-07-20T07:32:31;10.30;;;4.43;;
63621;SDS011;49770;47.544;19.074;2023-07-20T07:35:34;11.15;;;4.37;;
63621;SDS011;49770;47.544;19.074;2023-07-20T07:38:37;7.55;;;4.30;;
63621;SDS011;49770;47.544;19.074;2023-07-20T07:42:00;10.98;;;4.80;;
63621;SDS011;49770;47.544;19.074;2023-07-20T07:45:03;5.78;;;4.03;;
63621;SDS011;49770;47.544;19.074;2023-07-20T07:48:06;4.85;;;3.80;;
63621;SDS011;49770;47.544;19.074;2023-07-20T07:51:09;9.40;;;3.87;;
63621;SDS011;49770;47.544;19.074;2023-07-20T07:54:12;12.32;;;3.90;;
63621;SDS011;49770;47.544;19.074;2023-07-20T07:57:15;7.22;;;3.90;;
63621;SDS011;49770;47.544;19.074;2023-07-20T08:00:18;6.18;;;3.97;;
63621;SDS011;49770;47.544;19.074;2023-07-20T08:03:21;7.55;;;4.07;;
63621;SDS011;49770;47.544;19.074;2023-07-20T08:06:26;5.43;;;3.72;;
63621;SDS011;49770;47.544;19.074;2023-07-20T08:09:29;6.43;;;3.72;;
63621;SDS011;49770;47.544;19.074;2023-07-20T08:12:32;9.57;;;3.70;;
63621;SDS011;49770;47.544;19.074;2023-07-20T08:15:34;5.07;;;3.75;;
63621;SDS011;49770;47.544;19.074;2023-07-20T08:18:37;8.88;;;3.40;;
63621;SDS011;49770;47.544;19.074;2023-07-20T08:21:40;3.67;;;3.37;;
63621;SDS011;49770;47.544;19.074;2023-07-20T08:24:43;8.80;;;3.47;;
63621;SDS011;49770;47.544;19.074;2023-07-20T08:42:46;12.18;;;3.62;;
63621;SDS011;49770;47.544;19.074;2023-07-20T08:45:50;6.57;;;3.50;;
63621;SDS011;49770;47.544;19.074;2023-07-20T08:48:56;7.50;;;3.53;;
63621;SDS011;49770;47.544;19.074;2023-07-20T08:52:06;4.20;;;3.20;;
63621;SDS011;49770;47.544;19.074;2023-07-20T08:55:30;7.37;;;3.45;;
63621;SDS011;49770;47.544;19.074;2023-07-20T09:02:14;8.43;;;3.40;;
63621;SDS011;49770;47.544;19.074;2023-07-20T09:05:22;4.40;;;3.35;;
63621;SDS011;49770;47.544;19.074;2023-07-20T09:08:29;8.73;;;3.22;;
63621;SDS011;49770;47.544;19.074;2023-07-20T09:11:32;7.78;;;3.58;;
63621;SDS011;49770;47.544;19.074;2023-07-20T09:14:34;8.95;;;3.15;;
63621;SDS011;49770;47.544;19.074;2023-07-20T09:17:45;9.10;;;3.90;;
63621;SDS011;49770;47.544;19.074;2023-07-20T09:20:49;7.80;;;3.40;;
63621;SDS011;49770;47.544;19.074;2023-07-20T09:23:52;7.15;;;3.50;;
63621;SDS011;49770;47.544;19.074;2023-07-20T09:26:59;7.25;;;3.10;;
63621;SDS011;49770;47.544;19.074;2023-07-20T09:30:10;4.97;;;3.50;;
63621;SDS011;49770;47.544;19.074;2023-07-20T09:33:43;5.60;;;3.70;;
63621;SDS011;49770;47.544;19.074;2023-07-20T09:36:50;9.02;;;3.80;;
63621;SDS011;49770;47.544;19.074;2023-07-20T09:39:56;7.40;;;3.15;;
63621;SDS011;49770;47.544;19.074;2023-07-20T09:43:02;8.77;;;3.28;;
63621;SDS011;49770;47.544;19.074;2023-07-20T09:46:08;6.80;;;3.45;;
63621;SDS011;49770;47.544;19.074;2023-07-20T09:49:38;5.32;;;3.20;;
63621;SDS011;49770;47.544;19.074;2023-07-20T09:52:45;6.78;;;3.10;;
63621;SDS011;49770;47.544;19.074;2023-07-20T09:55:52;7.68;;;3.37;;
63621;SDS011;49770;47.544;19.074;2023-07-20T09:58:56;8.45;;;2.95;;
63621;SDS011;49770;47.544;19.074;2023-07-20T10:01:59;7.30;;;3.40;;
63621;SDS011;49770;47.544;19.074;2023-07-20T10:05:07;7.40;;;3.53;;
63621;SDS011;49770;47.544;19.074;2023-07-20T10:08:12;7.32;;;3.10;;
63621;SDS011;49770;47.544;19.074;2023-07-20T10:11:22;6.40;;;3.15;;
63621;SDS011;49770;47.544;19.074;2023-07-20T10:14:30;5.50;;;3.05;;
63621;SDS011;49770;47.544;19.074;2023-07-20T10:17:39;9.48;;;3.22;;
63621;SDS011;49770;47.544;19.074;2023-07-20T10:20:52;7.10;;;3.55;;
63621;SDS011;49770;47.544;19.074;2023-07-20T10:24:00;7.78;;;3.42;;
63621;SDS011;49770;47.544;19.074;2023-07-20T10:27:04;4.53;;;3.30;;
63621;SDS011;49770;47.544;19.074;2023-07-20T10:30:08;4.68;;;2.97;;
63621;SDS011;49770;47.544;19.074;2023-07-20T10:33:12;6.95;;;3.08;;
63621;SDS011;49770;47.544;19.074;2023-07-20T10:36:15;5.25;;;3.20;;
63621;SDS011;49770;47.544;19.074;2023-07-20T10:39:27;9.52;;;3.20;;
63621;SDS011;49770;47.544;19.074;2023-07-20T10:42:33;13.02;;;3.20;;
63621;SDS011;49770;47.544;19.074;2023-07-20T10:45:50;5.35;;;2.65;;
63621;SDS011;49770;47.544;19.074;2023-07-20T10:52:07;4.80;;;2.83;;
63621;SDS011;49770;47.544;19.074;2023-07-20T10:55:16;12.68;;;3.40;;
63621;SDS011;49770;47.544;19.074;2023-07-20T10:58:19;7.55;;;2.72;;
63621;SDS011;49770;47.544;19.074;2023-07-20T11:01:29;6.67;;;2.90;;
63621;SDS011;49770;47.544;19.074;2023-07-20T11:04:38;9.65;;;2.95;;
63621;SDS011;49770;47.544;19.074;2023-07-20T11:07:45;5.22;;;2.85;;
63621;SDS011;49770;47.544;19.074;2023-07-20T11:10:49;3.80;;;2.70;;
63621;SDS011;49770;47.544;19.074;2023-07-20T11:14:28;2.97;;;2.72;;
63621;SDS011;49770;47.544;19.074;2023-07-20T11:17:31;7.72;;;3.45;;
63621;SDS011;49770;47.544;19.074;2023-07-20T11:20:35;3.50;;;2.85;;
63621;SDS011;49770;47.544;19.074;2023-07-20T11:23:38;5.35;;;2.92;;
63621;SDS011;49770;47.544;19.074;2023-07-20T11:26:44;6.68;;;3.20;;
63621;SDS011;49770;47.544;19.074;2023-07-20T11:29:50;5.57;;;2.72;;
63621;SDS011;49770;47.544;19.074;2023-07-20T11:37:00;6.15;;;2.90;;
63621;SDS011;49770;47.544;19.074;2023-07-20T11:47:29;7.90;;;2.50;;
63621;SDS011;49770;47.544;19.074;2023-07-20T11:50:38;8.85;;;2.70;;
63621;SDS011;49770;47.544;19.074;2023-07-20T11:58:04;5.93;;;2.55;;
63621;SDS011;49770;47.544;19.074;2023-07-20T12:01:09;7.18;;;2.80;;
63621;SDS011;49770;47.544;19.074;2023-07-20T12:04:13;4.93;;;2.85;;
63621;SDS011;49770;47.544;19.074;2023-07-20T12:14:52;5.43;;;2.80;;
63621;SDS011;49770;47.544;19.074;2023-07-20T12:17:57;4.47;;;2.75;;
63621;SDS011;49770;47.544;19.074;2023-07-20T12:21:01;3.25;;;2.65;;
63621;SDS011;49770;47.544;19.074;2023-07-20T12:24:04;7.25;;;3.10;;
63621;SDS011;49770;47.544;19.074;2023-07-20T12:30:46;5.62;;;2.80;;
63621;SDS011;49770;47.544;19.074;2023-07-20T12:33:54;6.97;;;2.58;;
63621;SDS011;49770;47.544;19.074;2023-07-20T12:37:02;17.12;;;2.87;;
63621;SDS011;49770;47.544;19.074;2023-07-20T12:40:06;6.43;;;2.55;;
63621;SDS011;49770;47.544;19.074;2023-07-20T12:43:13;4.47;;;2.50;;
63621;SDS011;49770;47.544;19.074;2023-07-20T12:46:15;4.70;;;2.33;;
63621;SDS011;49770;47.544;19.074;2023-07-20T12:49:18;6.80;;;2.55;;
63621;SDS011;49770;47.544;19.074;2023-07-20T12:52:21;2.37;;;2.17;;
63621;SDS011;49770;47.544;19.074;2023-07-20T12:55:24;6.70;;;2.62;;
63621;SDS011;49770;47.544;19.074;2023-07-20T12:58:27;6.30;;;2.45;;
63621;SDS011;49770;47.544;19.074;2023-07-20T13:01:29;7.45;;;2.72;;
63621;SDS011;49770;47.544;19.074;2023-07-20T13:04:32;6.70;;;2.72;;
63621;SDS011;49770;47.544;19.074;2023-07-20T13:07:36;4.35;;;2.50;;
63621;SDS011;49770;47.544;19.074;2023-07-20T13:10:43;8.57;;;2.97;;
63621;SDS011;49770;47.544;19.074;2023-07-20T13:13:45;5.40;;;2.53;;
63621;SDS011;49770;47.544;19.074;2023-07-20T13:16:48;7.82;;;2.72;;
63621;SDS011;49770;47.544;19.074;2023-07-20T13:19:51;11.63;;;2.83;;
63621;SDS011;49770;47.544;19.074;2023-07-20T13:22:54;4.60;;;2.70;;
63621;SDS011;49770;47.544;19.074;2023-07-20T13:25:57;4.32;;;2.72;;
63621;SDS011;49770;47.544;19.074;2023-07-20T13:28:59;8.65;;;2.40;;
63621;SDS011;49770;47.544;19.074;2023-07-20T13:32:02;7.95;;;2.90;;
63621;SDS011;49770;47.544;19.074;2023-07-20T13:35:08;2.80;;;2.53;;
63621;SDS011;49770;47.544;19.074;2023-07-20T13:38:11;3.75;;;2.35;;
63621;SDS011;49770;47.544;19.074;2023-07-20T13:41:14;5.37;;;2.70;;
63621;SDS011;49770;47.544;19.074;2023-07-20T13:44:21;6.30;;;2.53;;
63621;SDS011;49770;47.544;19.074;2023-07-20T13:47:26;8.45;;;2.28;;
63621;SDS011;49770;47.544;19.074;2023-07-20T13:50:31;6.90;;;2.53;;
63621;SDS011;49770;47.544;19.074;2023-07-20T13:53:37;7.25;;;2.50;;
63621;SDS011;49770;47.544;19.074;2023-07-20T13:56:43;5.37;;;2.40;;
63621;SDS011;49770;47.544;19.074;2023-07-20T13:59:46;10.20;;;2.50;;
63621;SDS011;49770;47.544;19.074;2023-07-20T14:02:48;3.90;;;2.78;;
63621;SDS011;49770;47.544;19.074;2023-07-20T14:05:54;6.35;;;2.80;;
63621;SDS011;49770;47.544;19.074;2023-07-20T14:09:00;3.03;;;2.70;;
63621;SDS011;49770;47.544;19.074;2023-07-20T14:12:03;3.90;;;2.50;;
63621;SDS011;49770;47.544;19.074;2023-07-20T14:15:09;6.12;;;2.47;;
63621;SDS011;49770;47.544;19.074;2023-07-20T14:18:12;4.60;;;2.33;;
63621;SDS011;49770;47.544;19.074;2023-07-20T14:21:15;9.38;;;2.75;;
63621;SDS011;49770;47.544;19.074;2023-07-20T14:24:19;5.00;;;2.53;;
63621;SDS011;49770;47.544;19.074;2023-07-20T14:27:22;2.83;;;2.35;;
63621;SDS011;49770;47.544;19.074;2023-07-20T14:30:25;4.85;;;2.28;;
63621;SDS011;49770;47.544;19.074;2023-07-20T14:33:27;6.95;;;2.20;;
63621;SDS011;49770;47.544;19.074;2023-07-20T14:36:30;4.30;;;2.40;;
63621;SDS011;49770;47.544;19.074;2023-07-20T14:39:36;2.47;;;2.28;;
63621;SDS011;49770;47.544;19.074;2023-07-20T14:42:39;3.62;;;2.42;;
63621;SDS011;49770;47.544;19.074;2023-07-20T14:45:41;4.95;;;2.42;;
63621;SDS011;49770;47.544;19.074;2023-07-20T14:48:44;4.53;;;2.50;;
63621;SDS011;49770;47.544;19.074;2023-07-20T14:51:48;3.47;;;2.35;;
63621;SDS011;49770;47.544;19.074;2023-07-20T14:54:52;4.85;;;2.50;;
63621;SDS011;49770;47.544;19.074;2023-07-20T14:57:54;2.92;;;2.50;;
63621;SDS011;49770;47.544;19.074;2023-07-20T15:00:57;3.50;;;2.42;;
63621;SDS011;49770;47.544;19.074;2023-07-20T15:04:00;4.47;;;2.60;;
63621;SDS011;49770;47.544;19.074;2023-07-20T15:07:03;3.83;;;2.45;;
63621;SDS011;49770;47.544;19.074;2023-07-20T15:10:06;4.10;;;2.50;;
63621;SDS011;49770;47.544;19.074;2023-07-20T15:13:09;3.30;;;2.35;;
63621;SDS011;49770;47.544;19.074;2023-07-20T15:16:12;4.82;;;2.40;;
63621;SDS011;49770;47.544;19.074;2023-07-20T15:19:15;4.50;;;2.28;;
63621;SDS011;49770;47.544;19.074;2023-07-20T15:22:19;6.28;;;2.62;;
63621;SDS011;49770;47.544;19.074;2023-07-20T15:25:22;2.47;;;2.28;;
